sensor_id;sensor_type;location;lat;lon;timestamp;P1;durP1;ratioP1;P2;durP2;ratioP2
31018;SDS011;17689;45.610;5.858;2022-07-29T00:02:17;6.83;;;2.50;;
31018;SDS011;17689;45.610;5.858;2022-07-29T00:04:43;7.70;;;2.80;;
31018;SDS011;17689;45.610;5.858;2022-07-29T00:07:09;4.53;;;2.73;;
31018;SDS011;17689;45.610;5.858;2022-07-29T00:09:35;4.87;;;2.47;;
31018;SDS011;17689;45.610;5.858;2022-07-29T00:12:02;5.17;;;2.60;;
31018;SDS011;17689;45.610;5.858;2022-07-29T00:14:28;3.50;;;2.50;;
31018;SDS011;17689;45.610;5.858;2022-07-29T00:16:54;3.47;;;2.60;;
31018;SDS011;17689;45.610;5.858;2022-07-29T00:19:21;4.30;;;2.67;;
31018;SDS011;17689;45.610;5.858;2022-07-29T00:21:47;4.57;;;2.90;;
31018;SDS011;17689;45.610;5.858;2022-07-29T00:24:13;5.37;;;2.53;;
31018;SDS011;17689;45.610;5.858;2022-07-29T00:26:39;3.73;;;2.70;;
31018;SDS011;17689;45.610;5.858;2022-07-29T00:29:05;5.40;;;2.80;;
31018;SDS011;17689;45.610;5.858;2022-07-29T00:31:31;4.57;;;2.70;;
31018;SDS011;17689;45.610;5.858;2022-07-29T00:33:58;2.73;;;2.43;;
31018;SDS011;17689;45.610;5.858;2022-07-29T00:36:24;4.33;;;2.70;;
31018;SDS011;17689;45.610;5.858;2022-07-29T00:38:50;4.10;;;2.60;;
31018;SDS011;17689;45.610;5.858;2022-07-29T00:41:17;3.50;;;2.50;;
31018;SDS011;17689;45.610;5.858;2022-07-29T00:43:43;5.43;;;3.00;;
31018;SDS011;17689;45.610;5.858;2022-07-29T00:46:10;3.13;;;2.37;;
31018;SDS011;17689;45.610;5.858;2022-07-29T00:48:36;3.67;;;3.03;;
31018;SDS011;17689;45.610;5.858;2022-07-29T00:51:03;4.33;;;2.73;;
31018;SDS011;17689;45.610;5.858;2022-07-29T00:53:30;3.77;;;2.90;;
31018;SDS011;17689;45.610;5.858;2022-07-29T00:55:57;3.37;;;2.80;;
31018;SDS011;17689;45.610;5.858;2022-07-29T00:58:24;4.20;;;2.80;;
31018;SDS011;17689;45.610;5.858;2022-07-29T01:00:50;3.70;;;2.60;;
31018;SDS011;17689;45.610;5.858;2022-07-29T01:03:16;4.50;;;2.57;;
31018;SDS011;17689;45.610;5.858;2022-07-29T01:05:43;3.90;;;2.73;;
31018;SDS011;17689;45.610;5.858;2022-07-29T01:08:10;4.33;;;2.77;;
31018;SDS011;17689;45.610;5.858;2022-07-29T01:10:37;5.77;;;3.00;;
31018;SDS011;17689;45.610;5.858;2022-07-29T01:13:04;4.07;;;2.60;;
31018;SDS011;17689;45.610;5.858;2022-07-29T01:15:30;3.07;;;2.60;;
31018;SDS011;17689;45.610;5.858;2022-07-29T01:21:11;2.83;;;2.60;;
31018;SDS011;17689;45.610;5.858;2022-07-29T01:23:58;4.83;;;2.70;;
31018;SDS011;17689;45.610;5.858;2022-07-29T01:26:20;3.17;;;2.60;;
31018;SDS011;17689;45.610;5.858;2022-07-29T01:31:16;3.10;;;2.80;;
31018;SDS011;17689;45.610;5.858;2022-07-29T01:33:43;3.13;;;2.80;;
31018;SDS011;17689;45.610;5.858;2022-07-29T01:36:14;3.07;;;2.53;;
31018;SDS011;17689;45.610;5.858;2022-07-29T01:38:42;4.73;;;2.90;;
31018;SDS011;17689;45.610;5.858;2022-07-29T01:41:10;3.80;;;2.70;;
31018;SDS011;17689;45.610;5.858;2022-07-29T01:43:41;3.67;;;2.70;;
31018;SDS011;17689;45.610;5.858;2022-07-29T01:46:09;3.23;;;2.60;;
31018;SDS011;17689;45.610;5.858;2022-07-29T01:48:47;3.90;;;2.67;;
31018;SDS011;17689;45.610;5.858;2022-07-29T01:53:47;6.63;;;3.00;;
31018;SDS011;17689;45.610;5.858;2022-07-29T01:56:16;6.17;;;2.80;;
31018;SDS011;17689;45.610;5.858;2022-07-29T01:58:44;2.57;;;2.37;;
31018;SDS011;17689;45.610;5.858;2022-07-29T02:01:11;5.03;;;2.83;;
31018;SDS011;17689;45.610;5.858;2022-07-29T02:03:39;4.67;;;2.63;;
31018;SDS011;17689;45.610;5.858;2022-07-29T02:06:07;6.63;;;2.97;;
31018;SDS011;17689;45.610;5.858;2022-07-29T02:08:35;4.00;;;2.70;;
31018;SDS011;17689;45.610;5.858;2022-07-29T02:11:02;4.23;;;2.60;;
31018;SDS011;17689;45.610;5.858;2022-07-29T02:13:30;3.20;;;2.60;;
31018;SDS011;17689;45.610;5.858;2022-07-29T02:15:57;5.43;;;2.80;;
31018;SDS011;17689;45.610;5.858;2022-07-29T02:18:24;4.53;;;3.00;;
31018;SDS011;17689;45.610;5.858;2022-07-29T02:20:52;4.00;;;2.70;;
31018;SDS011;17689;45.610;5.858;2022-07-29T02:23:20;3.30;;;2.53;;
31018;SDS011;17689;45.610;5.858;2022-07-29T02:25:54;4.43;;;2.70;;
31018;SDS011;17689;45.610;5.858;2022-07-29T02:28:22;5.17;;;2.80;;
31018;SDS011;17689;45.610;5.858;2022-07-29T02:30:50;3.37;;;3.00;;
31018;SDS011;17689;45.610;5.858;2022-07-29T02:33:17;3.90;;;2.80;;
31018;SDS011;17689;45.610;5.858;2022-07-29T02:35:44;4.67;;;2.83;;
31018;SDS011;17689;45.610;5.858;2022-07-29T02:38:12;4.70;;;2.73;;
31018;SDS011;17689;45.610;5.858;2022-07-29T02:46:29;5.13;;;2.40;;
31018;SDS011;17689;45.610;5.858;2022-07-29T02:49:02;3.63;;;3.00;;
31018;SDS011;17689;45.610;5.858;2022-07-29T02:51:46;3.80;;;2.87;;
31018;SDS011;17689;45.610;5.858;2022-07-29T02:54:19;4.87;;;2.90;;
31018;SDS011;17689;45.610;5.858;2022-07-29T02:56:46;4.43;;;2.83;;
31018;SDS011;17689;45.610;5.858;2022-07-29T02:59:12;3.60;;;2.93;;
31018;SDS011;17689;45.610;5.858;2022-07-29T03:01:40;4.37;;;2.90;;
31018;SDS011;17689;45.610;5.858;2022-07-29T03:04:08;3.47;;;3.00;;
31018;SDS011;17689;45.610;5.858;2022-07-29T03:06:35;5.87;;;3.27;;
31018;SDS011;17689;45.610;5.858;2022-07-29T03:09:03;4.53;;;2.83;;
31018;SDS011;17689;45.610;5.858;2022-07-29T03:11:29;3.20;;;2.90;;
31018;SDS011;17689;45.610;5.858;2022-07-29T03:13:56;3.43;;;2.90;;
31018;SDS011;17689;45.610;5.858;2022-07-29T03:16:22;3.77;;;3.10;;
31018;SDS011;17689;45.610;5.858;2022-07-29T03:18:48;4.77;;;3.30;;
31018;SDS011;17689;45.610;5.858;2022-07-29T03:21:15;4.40;;;2.87;;
31018;SDS011;17689;45.610;5.858;2022-07-29T03:23:45;4.20;;;3.00;;
31018;SDS011;17689;45.610;5.858;2022-07-29T03:26:12;4.03;;;3.00;;
31018;SDS011;17689;45.610;5.858;2022-07-29T03:28:38;5.47;;;3.40;;
31018;SDS011;17689;45.610;5.858;2022-07-29T03:31:04;4.80;;;3.13;;
31018;SDS011;17689;45.610;5.858;2022-07-29T03:33:30;5.57;;;3.37;;
31018;SDS011;17689;45.610;5.858;2022-07-29T03:35:56;8.83;;;3.80;;
31018;SDS011;17689;45.610;5.858;2022-07-29T03:38:24;4.80;;;3.10;;
31018;SDS011;17689;45.610;5.858;2022-07-29T03:40:54;6.37;;;3.00;;
31018;SDS011;17689;45.610;5.858;2022-07-29T03:43:21;4.47;;;3.23;;
31018;SDS011;17689;45.610;5.858;2022-07-29T03:45:49;5.67;;;3.10;;
31018;SDS011;17689;45.610;5.858;2022-07-29T03:48:17;4.77;;;3.00;;
31018;SDS011;17689;45.610;5.858;2022-07-29T03:50:45;5.23;;;3.10;;
31018;SDS011;17689;45.610;5.858;2022-07-29T03:53:11;3.53;;;3.20;;
31018;SDS011;17689;45.610;5.858;2022-07-29T03:55:41;5.20;;;3.57;;
31018;SDS011;17689;45.610;5.858;2022-07-29T03:58:09;7.07;;;3.40;;
31018;SDS011;17689;45.610;5.858;2022-07-29T04:00:36;3.73;;;3.10;;
31018;SDS011;17689;45.610;5.858;2022-07-29T04:03:03;4.23;;;3.40;;
31018;SDS011;17689;45.610;5.858;2022-07-29T04:05:30;4.80;;;3.70;;
31018;SDS011;17689;45.610;5.858;2022-07-29T04:07:56;6.77;;;3.80;;
31018;SDS011;17689;45.610;5.858;2022-07-29T04:10:22;4.07;;;3.40;;
31018;SDS011;17689;45.610;5.858;2022-07-29T04:12:49;5.90;;;3.57;;
31018;SDS011;17689;45.610;5.858;2022-07-29T04:15:15;4.23;;;3.33;;
31018;SDS011;17689;45.610;5.858;2022-07-29T04:17:41;5.43;;;3.97;;
31018;SDS011;17689;45.610;5.858;2022-07-29T04:20:08;4.77;;;3.30;;
31018;SDS011;17689;45.610;5.858;2022-07-29T04:22:34;6.13;;;3.53;;
31018;SDS011;17689;45.610;5.858;2022-07-29T04:25:00;4.90;;;3.20;;
31018;SDS011;17689;45.610;5.858;2022-07-29T04:27:26;4.60;;;3.10;;
31018;SDS011;17689;45.610;5.858;2022-07-29T04:29:53;5.03;;;3.53;;
31018;SDS011;17689;45.610;5.858;2022-07-29T04:32:19;4.43;;;3.13;;
31018;SDS011;17689;45.610;5.858;2022-07-29T04:34:45;6.97;;;3.70;;
31018;SDS011;17689;45.610;5.858;2022-07-29T04:37:12;6.33;;;3.57;;
31018;SDS011;17689;45.610;5.858;2022-07-29T04:39:38;5.10;;;4.30;;
31018;SDS011;17689;45.610;5.858;2022-07-29T04:42:04;6.20;;;4.20;;
31018;SDS011;17689;45.610;5.858;2022-07-29T04:44:30;18.27;;;5.40;;
31018;SDS011;17689;45.610;5.858;2022-07-29T04:46:56;20.27;;;5.97;;
31018;SDS011;17689;45.610;5.858;2022-07-29T04:49:23;27.87;;;7.30;;
31018;SDS011;17689;45.610;5.858;2022-07-29T04:51:49;9.67;;;5.40;;
31018;SDS011;17689;45.610;5.858;2022-07-29T04:54:15;11.23;;;5.57;;
31018;SDS011;17689;45.610;5.858;2022-07-29T04:56:41;14.73;;;7.43;;
31018;SDS011;17689;45.610;5.858;2022-07-29T04:59:07;13.37;;;7.70;;
31018;SDS011;17689;45.610;5.858;2022-07-29T05:01:34;10.80;;;6.00;;
31018;SDS011;17689;45.610;5.858;2022-07-29T05:04:00;8.83;;;5.03;;
31018;SDS011;17689;45.610;5.858;2022-07-29T05:06:26;7.90;;;4.73;;
31018;SDS011;17689;45.610;5.858;2022-07-29T05:08:52;7.13;;;5.20;;
31018;SDS011;17689;45.610;5.858;2022-07-29T05:11:18;8.40;;;5.40;;
31018;SDS011;17689;45.610;5.858;2022-07-29T05:13:44;8.90;;;5.40;;
31018;SDS011;17689;45.610;5.858;2022-07-29T05:16:11;8.03;;;6.17;;
31018;SDS011;17689;45.610;5.858;2022-07-29T05:18:37;11.13;;;8.17;;
31018;SDS011;17689;45.610;5.858;2022-07-29T05:21:04;15.23;;;9.00;;
31018;SDS011;17689;45.610;5.858;2022-07-29T05:23:30;8.77;;;6.50;;
31018;SDS011;17689;45.610;5.858;2022-07-29T05:25:56;9.47;;;6.73;;
31018;SDS011;17689;45.610;5.858;2022-07-29T05:28:22;6.37;;;4.97;;
31018;SDS011;17689;45.610;5.858;2022-07-29T05:30:49;9.13;;;4.43;;
31018;SDS011;17689;45.610;5.858;2022-07-29T05:33:15;5.63;;;5.03;;
31018;SDS011;17689;45.610;5.858;2022-07-29T05:35:41;7.37;;;4.70;;
31018;SDS011;17689;45.610;5.858;2022-07-29T05:38:07;5.33;;;4.57;;
31018;SDS011;17689;45.610;5.858;2022-07-29T05:40:33;7.23;;;4.57;;
31018;SDS011;17689;45.610;5.858;2022-07-29T05:42:59;5.67;;;4.50;;
31018;SDS011;17689;45.610;5.858;2022-07-29T05:45:26;5.30;;;4.67;;
31018;SDS011;17689;45.610;5.858;2022-07-29T05:47:52;5.10;;;4.20;;
31018;SDS011;17689;45.610;5.858;2022-07-29T05:50:18;6.63;;;4.80;;
31018;SDS011;17689;45.610;5.858;2022-07-29T05:52:44;5.50;;;4.50;;
31018;SDS011;17689;45.610;5.858;2022-07-29T05:55:10;4.97;;;4.47;;
31018;SDS011;17689;45.610;5.858;2022-07-29T05:57:37;6.93;;;4.50;;
31018;SDS011;17689;45.610;5.858;2022-07-29T06:00:03;10.17;;;4.60;;
31018;SDS011;17689;45.610;5.858;2022-07-29T06:02:29;4.97;;;4.13;;
31018;SDS011;17689;45.610;5.858;2022-07-29T06:04:56;10.37;;;4.93;;
31018;SDS011;17689;45.610;5.858;2022-07-29T06:07:22;7.77;;;4.63;;
31018;SDS011;17689;45.610;5.858;2022-07-29T06:09:48;10.23;;;5.10;;
31018;SDS011;17689;45.610;5.858;2022-07-29T06:12:14;8.20;;;5.10;;
31018;SDS011;17689;45.610;5.858;2022-07-29T06:14:40;16.17;;;5.93;;
31018;SDS011;17689;45.610;5.858;2022-07-29T06:17:07;8.73;;;5.00;;
31018;SDS011;17689;45.610;5.858;2022-07-29T06:19:36;16.67;;;6.63;;
31018;SDS011;17689;45.610;5.858;2022-07-29T06:22:03;9.70;;;5.50;;
31018;SDS011;17689;45.610;5.858;2022-07-29T06:24:29;9.27;;;4.80;;
31018;SDS011;17689;45.610;5.858;2022-07-29T06:26:55;6.03;;;4.37;;
31018;SDS011;17689;45.610;5.858;2022-07-29T06:29:21;5.60;;;4.57;;
31018;SDS011;17689;45.610;5.858;2022-07-29T06:31:48;7.90;;;4.60;;
31018;SDS011;17689;45.610;5.858;2022-07-29T06:34:14;6.63;;;4.97;;
31018;SDS011;17689;45.610;5.858;2022-07-29T06:36:41;6.07;;;4.93;;
31018;SDS011;17689;45.610;5.858;2022-07-29T06:39:07;5.43;;;4.70;;
31018;SDS011;17689;45.610;5.858;2022-07-29T06:41:34;6.57;;;4.53;;
31018;SDS011;17689;45.610;5.858;2022-07-29T06:44:00;7.40;;;5.60;;
31018;SDS011;17689;45.610;5.858;2022-07-29T06:46:27;9.30;;;6.23;;
31018;SDS011;17689;45.610;5.858;2022-07-29T06:48:53;9.10;;;6.87;;
31018;SDS011;17689;45.610;5.858;2022-07-29T06:51:20;11.93;;;7.90;;
31018;SDS011;17689;45.610;5.858;2022-07-29T06:53:46;9.63;;;6.80;;
31018;SDS011;17689;45.610;5.858;2022-07-29T06:56:13;11.77;;;7.63;;
31018;SDS011;17689;45.610;5.858;2022-07-29T06:58:39;9.70;;;6.17;;
31018;SDS011;17689;45.610;5.858;2022-07-29T07:01:05;10.03;;;6.10;;
31018;SDS011;17689;45.610;5.858;2022-07-29T07:03:32;11.80;;;6.57;;
31018;SDS011;17689;45.610;5.858;2022-07-29T07:05:58;12.20;;;6.33;;
31018;SDS011;17689;45.610;5.858;2022-07-29T07:08:25;11.10;;;6.80;;
31018;SDS011;17689;45.610;5.858;2022-07-29T07:10:51;14.70;;;8.10;;
31018;SDS011;17689;45.610;5.858;2022-07-29T07:13:18;12.17;;;7.00;;
31018;SDS011;17689;45.610;5.858;2022-07-29T07:15:44;8.03;;;5.80;;
31018;SDS011;17689;45.610;5.858;2022-07-29T07:18:13;5.77;;;5.17;;
31018;SDS011;17689;45.610;5.858;2022-07-29T07:20:39;7.63;;;4.57;;
31018;SDS011;17689;45.610;5.858;2022-07-29T07:23:05;7.73;;;6.00;;
31018;SDS011;17689;45.610;5.858;2022-07-29T07:25:31;10.70;;;6.00;;
31018;SDS011;17689;45.610;5.858;2022-07-29T07:27:57;8.87;;;6.23;;
31018;SDS011;17689;45.610;5.858;2022-07-29T07:30:23;6.70;;;6.07;;
31018;SDS011;17689;45.610;5.858;2022-07-29T07:32:50;8.00;;;5.47;;
31018;SDS011;17689;45.610;5.858;2022-07-29T07:35:16;8.07;;;5.60;;
31018;SDS011;17689;45.610;5.858;2022-07-29T07:37:42;8.03;;;6.67;;
31018;SDS011;17689;45.610;5.858;2022-07-29T07:40:09;9.60;;;6.50;;
31018;SDS011;17689;45.610;5.858;2022-07-29T07:42:39;9.80;;;6.60;;
31018;SDS011;17689;45.610;5.858;2022-07-29T07:45:06;9.57;;;7.20;;
31018;SDS011;17689;45.610;5.858;2022-07-29T07:47:34;9.90;;;7.73;;
31018;SDS011;17689;45.610;5.858;2022-07-29T07:50:00;11.10;;;8.03;;
31018;SDS011;17689;45.610;5.858;2022-07-29T07:52:26;11.90;;;9.43;;
31018;SDS011;17689;45.610;5.858;2022-07-29T07:54:52;14.63;;;9.50;;
31018;SDS011;17689;45.610;5.858;2022-07-29T07:57:19;13.00;;;9.33;;
31018;SDS011;17689;45.610;5.858;2022-07-29T07:59:45;14.10;;;9.20;;
31018;SDS011;17689;45.610;5.858;2022-07-29T08:02:11;13.80;;;10.30;;
31018;SDS011;17689;45.610;5.858;2022-07-29T08:04:37;15.03;;;11.10;;
31018;SDS011;17689;45.610;5.858;2022-07-29T08:07:06;14.23;;;10.20;;
31018;SDS011;17689;45.610;5.858;2022-07-29T08:09:32;16.97;;;10.60;;
31018;SDS011;17689;45.610;5.858;2022-07-29T08:11:59;15.83;;;10.67;;
31018;SDS011;17689;45.610;5.858;2022-07-29T08:14:30;17.57;;;10.20;;
31018;SDS011;17689;45.610;5.858;2022-07-29T08:16:57;12.43;;;9.30;;
31018;SDS011;17689;45.610;5.858;2022-07-29T08:19:23;11.93;;;8.53;;
31018;SDS011;17689;45.610;5.858;2022-07-29T08:21:50;10.17;;;9.00;;
31018;SDS011;17689;45.610;5.858;2022-07-29T08:24:18;13.43;;;8.27;;
31018;SDS011;17689;45.610;5.858;2022-07-29T08:27:02;11.10;;;9.10;;
31018;SDS011;17689;45.610;5.858;2022-07-29T08:29:29;11.53;;;9.13;;
31018;SDS011;17689;45.610;5.858;2022-07-29T08:31:55;8.47;;;7.50;;
31018;SDS011;17689;45.610;5.858;2022-07-29T08:34:21;8.83;;;7.50;;
31018;SDS011;17689;45.610;5.858;2022-07-29T08:36:47;9.10;;;7.97;;
31018;SDS011;17689;45.610;5.858;2022-07-29T08:39:13;13.90;;;8.37;;
31018;SDS011;17689;45.610;5.858;2022-07-29T08:41:39;10.13;;;8.40;;
31018;SDS011;17689;45.610;5.858;2022-07-29T08:44:06;10.40;;;7.33;;
31018;SDS011;17689;45.610;5.858;2022-07-29T08:46:32;11.97;;;7.87;;
31018;SDS011;17689;45.610;5.858;2022-07-29T08:48:58;13.37;;;7.37;;
31018;SDS011;17689;45.610;5.858;2022-07-29T08:51:25;11.03;;;9.63;;
31018;SDS011;17689;45.610;5.858;2022-07-29T08:53:51;15.87;;;9.50;;
31018;SDS011;17689;45.610;5.858;2022-07-29T08:56:18;10.83;;;8.83;;
31018;SDS011;17689;45.610;5.858;2022-07-29T08:58:45;10.23;;;9.00;;
31018;SDS011;17689;45.610;5.858;2022-07-29T09:01:12;11.43;;;7.93;;
31018;SDS011;17689;45.610;5.858;2022-07-29T09:03:39;12.57;;;9.00;;
31018;SDS011;17689;45.610;5.858;2022-07-29T09:06:05;11.43;;;8.80;;
31018;SDS011;17689;45.610;5.858;2022-07-29T09:08:32;12.40;;;9.50;;
31018;SDS011;17689;45.610;5.858;2022-07-29T09:11:00;8.47;;;7.00;;
31018;SDS011;17689;45.610;5.858;2022-07-29T09:13:26;10.87;;;7.70;;
31018;SDS011;17689;45.610;5.858;2022-07-29T09:15:52;14.10;;;8.77;;
31018;SDS011;17689;45.610;5.858;2022-07-29T09:21:04;12.13;;;7.70;;
31018;SDS011;17689;45.610;5.858;2022-07-29T09:26:28;8.90;;;7.17;;
31018;SDS011;17689;45.610;5.858;2022-07-29T09:28:55;9.83;;;4.90;;
31018;SDS011;17689;45.610;5.858;2022-07-29T09:31:32;5.40;;;4.53;;
31018;SDS011;17689;45.610;5.858;2022-07-29T09:33:59;5.83;;;4.47;;
31018;SDS011;17689;45.610;5.858;2022-07-29T09:36:25;6.27;;;4.03;;
31018;SDS011;17689;45.610;5.858;2022-07-29T09:38:58;6.83;;;4.20;;
31018;SDS011;17689;45.610;5.858;2022-07-29T09:41:25;6.40;;;4.57;;
31018;SDS011;17689;45.610;5.858;2022-07-29T09:43:56;5.60;;;4.47;;
31018;SDS011;17689;45.610;5.858;2022-07-29T09:46:23;5.90;;;4.77;;
31018;SDS011;17689;45.610;5.858;2022-07-29T09:49:08;5.77;;;4.40;;
31018;SDS011;17689;45.610;5.858;2022-07-29T09:51:35;6.13;;;4.50;;
31018;SDS011;17689;45.610;5.858;2022-07-29T09:54:03;5.33;;;4.60;;
31018;SDS011;17689;45.610;5.858;2022-07-29T09:56:47;5.27;;;4.53;;
31018;SDS011;17689;45.610;5.858;2022-07-29T09:59:13;5.00;;;4.50;;
31018;SDS011;17689;45.610;5.858;2022-07-29T10:01:39;7.20;;;4.90;;
31018;SDS011;17689;45.610;5.858;2022-07-29T10:04:05;7.33;;;5.30;;
31018;SDS011;17689;45.610;5.858;2022-07-29T10:06:32;9.27;;;4.87;;
31018;SDS011;17689;45.610;5.858;2022-07-29T10:09:09;6.03;;;4.80;;
31018;SDS011;17689;45.610;5.858;2022-07-29T10:11:35;7.33;;;4.80;;
31018;SDS011;17689;45.610;5.858;2022-07-29T10:14:02;8.13;;;4.33;;
31018;SDS011;17689;45.610;5.858;2022-07-29T10:16:29;8.33;;;4.77;;
31018;SDS011;17689;45.610;5.858;2022-07-29T10:19:00;6.40;;;4.50;;
31018;SDS011;17689;45.610;5.858;2022-07-29T10:21:26;7.93;;;4.37;;
31018;SDS011;17689;45.610;5.858;2022-07-29T10:23:53;5.37;;;4.73;;
31018;SDS011;17689;45.610;5.858;2022-07-29T10:26:19;5.23;;;4.60;;
31018;SDS011;17689;45.610;5.858;2022-07-29T10:28:45;6.70;;;5.10;;
31018;SDS011;17689;45.610;5.858;2022-07-29T10:31:30;9.17;;;5.80;;
31018;SDS011;17689;45.610;5.858;2022-07-29T10:34:06;9.80;;;5.63;;
31018;SDS011;17689;45.610;5.858;2022-07-29T10:42:16;8.60;;;5.57;;
31018;SDS011;17689;45.610;5.858;2022-07-29T10:44:40;8.30;;;5.87;;
31018;SDS011;17689;45.610;5.858;2022-07-29T10:47:07;6.67;;;4.87;;
31018;SDS011;17689;45.610;5.858;2022-07-29T10:49:34;8.97;;;5.83;;
31018;SDS011;17689;45.610;5.858;2022-07-29T10:57:12;7.00;;;5.80;;
31018;SDS011;17689;45.610;5.858;2022-07-29T10:59:39;7.97;;;6.47;;
31018;SDS011;17689;45.610;5.858;2022-07-29T11:07:16;7.40;;;6.20;;
31018;SDS011;17689;45.610;5.858;2022-07-29T11:09:43;9.50;;;6.43;;
31018;SDS011;17689;45.610;5.858;2022-07-29T11:14:55;7.80;;;6.10;;
31018;SDS011;17689;45.610;5.858;2022-07-29T11:17:22;9.87;;;6.10;;
31018;SDS011;17689;45.610;5.858;2022-07-29T11:19:49;7.60;;;6.10;;
31018;SDS011;17689;45.610;5.858;2022-07-29T11:22:34;8.47;;;6.00;;
31018;SDS011;17689;45.610;5.858;2022-07-29T11:25:13;8.73;;;5.97;;
31018;SDS011;17689;45.610;5.858;2022-07-29T11:27:39;8.77;;;6.03;;
31018;SDS011;17689;45.610;5.858;2022-07-29T11:30:06;8.60;;;6.10;;
31018;SDS011;17689;45.610;5.858;2022-07-29T11:32:36;7.60;;;6.27;;
31018;SDS011;17689;45.610;5.858;2022-07-29T11:35:17;8.13;;;7.00;;
31018;SDS011;17689;45.610;5.858;2022-07-29T11:40:30;8.13;;;6.57;;
31018;SDS011;17689;45.610;5.858;2022-07-29T11:42:56;9.83;;;6.40;;
31018;SDS011;17689;45.610;5.858;2022-07-29T11:45:23;7.00;;;6.20;;
31018;SDS011;17689;45.610;5.858;2022-07-29T11:47:54;7.73;;;6.80;;
31018;SDS011;17689;45.610;5.858;2022-07-29T11:50:33;8.93;;;6.47;;
31018;SDS011;17689;45.610;5.858;2022-07-29T11:52:59;6.70;;;5.80;;
31018;SDS011;17689;45.610;5.858;2022-07-29T11:55:26;6.90;;;6.17;;
31018;SDS011;17689;45.610;5.858;2022-07-29T11:57:56;6.77;;;6.07;;
31018;SDS011;17689;45.610;5.858;2022-07-29T12:02:53;6.80;;;6.10;;
31018;SDS011;17689;45.610;5.858;2022-07-29T12:05:20;7.17;;;5.93;;
31018;SDS011;17689;45.610;5.858;2022-07-29T12:07:47;8.07;;;5.63;;
31018;SDS011;17689;45.610;5.858;2022-07-29T12:10:13;7.40;;;5.67;;
31018;SDS011;17689;45.610;5.858;2022-07-29T12:12:40;8.77;;;5.97;;
31018;SDS011;17689;45.610;5.858;2022-07-29T12:17:38;8.33;;;6.43;;
31018;SDS011;17689;45.610;5.858;2022-07-29T12:20:04;8.67;;;6.10;;
31018;SDS011;17689;45.610;5.858;2022-07-29T12:22:32;6.83;;;6.13;;
31018;SDS011;17689;45.610;5.858;2022-07-29T12:25:08;7.27;;;5.90;;
31018;SDS011;17689;45.610;5.858;2022-07-29T12:27:35;6.10;;;5.50;;
31018;SDS011;17689;45.610;5.858;2022-07-29T12:30:07;5.40;;;4.90;;
31018;SDS011;17689;45.610;5.858;2022-07-29T12:32:34;5.60;;;4.90;;
31018;SDS011;17689;45.610;5.858;2022-07-29T12:35:04;6.57;;;5.80;;
31018;SDS011;17689;45.610;5.858;2022-07-29T12:37:32;7.93;;;6.60;;
31018;SDS011;17689;45.610;5.858;2022-07-29T12:39:59;7.73;;;6.50;;
31018;SDS011;17689;45.610;5.858;2022-07-29T12:42:25;6.57;;;5.10;;
31018;SDS011;17689;45.610;5.858;2022-07-29T12:44:51;8.63;;;6.37;;
31018;SDS011;17689;45.610;5.858;2022-07-29T12:47:19;10.37;;;8.30;;
31018;SDS011;17689;45.610;5.858;2022-07-29T12:49:45;9.43;;;7.73;;
31018;SDS011;17689;45.610;5.858;2022-07-29T12:52:28;7.93;;;7.13;;
31018;SDS011;17689;45.610;5.858;2022-07-29T12:54:54;8.47;;;7.67;;
31018;SDS011;17689;45.610;5.858;2022-07-29T12:57:21;9.70;;;7.90;;
31018;SDS011;17689;45.610;5.858;2022-07-29T13:02:25;9.17;;;8.10;;
31018;SDS011;17689;45.610;5.858;2022-07-29T13:04:55;8.00;;;7.10;;
31018;SDS011;17689;45.610;5.858;2022-07-29T13:07:25;7.90;;;7.20;;
31018;SDS011;17689;45.610;5.858;2022-07-29T13:09:52;8.33;;;7.30;;
31018;SDS011;17689;45.610;5.858;2022-07-29T13:12:19;9.07;;;6.60;;
31018;SDS011;17689;45.610;5.858;2022-07-29T13:14:48;6.13;;;5.57;;
31018;SDS011;17689;45.610;5.858;2022-07-29T13:17:16;6.40;;;4.90;;
31018;SDS011;17689;45.610;5.858;2022-07-29T13:22:12;6.73;;;5.80;;
31018;SDS011;17689;45.610;5.858;2022-07-29T13:27:15;5.97;;;5.20;;
31018;SDS011;17689;45.610;5.858;2022-07-29T13:29:42;6.13;;;5.50;;
31018;SDS011;17689;45.610;5.858;2022-07-29T13:32:08;6.43;;;5.47;;
31018;SDS011;17689;45.610;5.858;2022-07-29T13:34:34;7.93;;;5.53;;
31018;SDS011;17689;45.610;5.858;2022-07-29T13:37:00;10.10;;;5.80;;
31018;SDS011;17689;45.610;5.858;2022-07-29T13:39:27;6.93;;;5.83;;
31018;SDS011;17689;45.610;5.858;2022-07-29T13:41:53;12.17;;;5.93;;
31018;SDS011;17689;45.610;5.858;2022-07-29T13:44:19;6.50;;;5.90;;
31018;SDS011;17689;45.610;5.858;2022-07-29T13:46:45;6.67;;;6.07;;
31018;SDS011;17689;45.610;5.858;2022-07-29T13:49:11;8.83;;;6.50;;
31018;SDS011;17689;45.610;5.858;2022-07-29T13:51:38;7.97;;;6.10;;
31018;SDS011;17689;45.610;5.858;2022-07-29T13:54:04;8.70;;;5.37;;
31018;SDS011;17689;45.610;5.858;2022-07-29T13:56:30;9.57;;;6.17;;
31018;SDS011;17689;45.610;5.858;2022-07-29T13:58:57;7.00;;;5.50;;
31018;SDS011;17689;45.610;5.858;2022-07-29T14:01:23;5.83;;;5.13;;
31018;SDS011;17689;45.610;5.858;2022-07-29T14:03:50;5.27;;;4.80;;
31018;SDS011;17689;45.610;5.858;2022-07-29T14:06:16;6.17;;;5.60;;
31018;SDS011;17689;45.610;5.858;2022-07-29T14:08:42;5.13;;;4.60;;
31018;SDS011;17689;45.610;5.858;2022-07-29T14:11:08;7.47;;;5.30;;
31018;SDS011;17689;45.610;5.858;2022-07-29T14:13:34;7.27;;;5.13;;
31018;SDS011;17689;45.610;5.858;2022-07-29T14:16:00;6.50;;;5.00;;
31018;SDS011;17689;45.610;5.858;2022-07-29T14:18:27;5.40;;;4.60;;
31018;SDS011;17689;45.610;5.858;2022-07-29T14:20:53;5.50;;;4.67;;
31018;SDS011;17689;45.610;5.858;2022-07-29T14:23:19;5.20;;;4.70;;
31018;SDS011;17689;45.610;5.858;2022-07-29T14:25:45;5.63;;;5.00;;
31018;SDS011;17689;45.610;5.858;2022-07-29T14:28:11;5.87;;;5.17;;
31018;SDS011;17689;45.610;5.858;2022-07-29T14:30:38;5.77;;;4.40;;
31018;SDS011;17689;45.610;5.858;2022-07-29T14:33:04;7.33;;;5.20;;
31018;SDS011;17689;45.610;5.858;2022-07-29T14:35:31;5.43;;;4.90;;
31018;SDS011;17689;45.610;5.858;2022-07-29T14:37:57;5.47;;;4.97;;
31018;SDS011;17689;45.610;5.858;2022-07-29T14:40:23;6.47;;;5.10;;
31018;SDS011;17689;45.610;5.858;2022-07-29T14:42:50;6.47;;;5.03;;
31018;SDS011;17689;45.610;5.858;2022-07-29T14:45:16;5.67;;;4.80;;
31018;SDS011;17689;45.610;5.858;2022-07-29T14:47:43;5.70;;;4.70;;
31018;SDS011;17689;45.610;5.858;2022-07-29T14:50:09;6.07;;;5.10;;
31018;SDS011;17689;45.610;5.858;2022-07-29T14:52:36;5.03;;;4.53;;
31018;SDS011;17689;45.610;5.858;2022-07-29T14:55:03;4.97;;;4.47;;
31018;SDS011;17689;45.610;5.858;2022-07-29T14:57:29;5.33;;;4.57;;
31018;SDS011;17689;45.610;5.858;2022-07-29T14:59:55;5.20;;;4.70;;
31018;SDS011;17689;45.610;5.858;2022-07-29T15:02:21;5.93;;;4.80;;
31018;SDS011;17689;45.610;5.858;2022-07-29T15:04:48;4.73;;;4.33;;
31018;SDS011;17689;45.610;5.858;2022-07-29T15:07:14;5.00;;;4.53;;
31018;SDS011;17689;45.610;5.858;2022-07-29T15:09:41;6.00;;;4.40;;
31018;SDS011;17689;45.610;5.858;2022-07-29T15:12:07;5.30;;;4.77;;
31018;SDS011;17689;45.610;5.858;2022-07-29T15:14:35;5.70;;;4.47;;
31018;SDS011;17689;45.610;5.858;2022-07-29T15:17:01;4.60;;;4.20;;
31018;SDS011;17689;45.610;5.858;2022-07-29T15:19:27;5.27;;;4.33;;
31018;SDS011;17689;45.610;5.858;2022-07-29T15:21:53;4.90;;;4.00;;
31018;SDS011;17689;45.610;5.858;2022-07-29T15:24:20;4.30;;;3.70;;
31018;SDS011;17689;45.610;5.858;2022-07-29T15:26:46;4.43;;;3.80;;
31018;SDS011;17689;45.610;5.858;2022-07-29T15:29:12;4.30;;;3.90;;
31018;SDS011;17689;45.610;5.858;2022-07-29T15:31:38;5.03;;;4.00;;
31018;SDS011;17689;45.610;5.858;2022-07-29T15:34:05;4.50;;;3.63;;
31018;SDS011;17689;45.610;5.858;2022-07-29T15:36:31;6.07;;;3.90;;
31018;SDS011;17689;45.610;5.858;2022-07-29T15:38:57;4.30;;;3.90;;
31018;SDS011;17689;45.610;5.858;2022-07-29T15:41:23;5.47;;;3.77;;